岡山グライダークラブ活動状況掲示板あなたは無料カウンター人目の訪問者です

岡山グライダークラブ
岡山市浦安南町639-1 岡南飛行場
 使用機:シャイベ式 SF25C型 ファルケ   JA2330
      ヴァレンティン式17E型 タイフーン  JA2342
 練習日:毎日曜日  クラブルーム:電話 086-265-1810
この掲示板は岡山グライダークラブの活動状況をお知らせする掲示板です。
!!!この掲示板は投稿規制をしています。!!!
クラブ関連各種情報は 岡山グライダークラブクラブルーム      を       .
  ブリーフイング情報は  岡山グライダークラブブリーフィングルーム  をご覧下さい。 .
※写真はクリックすると拡大して見ることが出来ます。
岡南飛行場へのアクセス等は 岡南飛行場管理事務所 をご覧ください。
クラブの ホームページ ができました。

 
07月12日
by OGC at 2020/7/12(日) 21:18:03 No.20200712205748  削除コメント
1024 x 768 x 105,913バイト
No.1

07月12日
本日の参加者
  会員      18名
  その他      0名


@本日の様子






METAR
RJBK 120000Z 29004KT 250V320 25KM FEW030CU SCT180AC BKN/// 26/20 Q1010 A2983
RJOB 120000Z 29005KT 250V350 9999 FEW020 BKN/// 24/19 Q1011
RJOT 120000Z 23006KT 9999 FEW005 SCT040 BKN180 24/22 Q1011
RJOA 120000Z VRB02KT 9999 FEW015 SCT020 BKN/// 23/18 Q1012
TAF
RJOB 112305Z 1200/1306 36007KT 9999 FEW020 SCT045
     BECMG 1205/1207 20004KT
     BECMG 1221/1300 08007KT
     BECMG 1300/1303 4000 -SHRA BR FEW001 SCT005 BKN008
     TEMPO 1303/1306 1500 SHRA BR BCFG FEW000 SCT003 BKN005
RJOT 112308Z 1200/1306 26006KT 9999 FEW015 SCT035
     BECMG 1215/1218 06004KT
     TEMPO 1300/1306 4000 -SHRA BR
RJOA 112305Z 1200/1306 20004KT 9999 FEW015
     BECMG 1221/1300 4000 -SHRA BR
     TEMPO 1300/1306 1500 -SHRA BR FEW002 BKN008 BKN015

本日は曇りで風は弱くほぼ正対風で着陸練習日和、訓練生はTGL訓練や笠岡方面へのNAV訓練、ライセンサーはタイフーンの50時間点検までの時間を気にしながら短めのフライトを行いました。
タイフーンはフライト後に翼を引き抜き耐空検査前の整備を開始しました。来週にはファルケも翼を引き抜き耐空検査前の整備を本格的に開始します。



解散    18:30

1番機  10:30離陸 撤収機  18:00着陸 

SF25C JA2330 ファルケ     10Flt.4h55min  
17E   JA2342 タイフーン    05Flt.1h25min  
合計                    15Flt.6h20min

    << 戻る || ホームページ || 最新の掲示板へ